Terminal Aerodrome Forecast
Issued by NWS Wichita, KS

Home | Current Version | Previous Version | Graphics & Text | Print | Product List | Glossary On
Versions: 1 2 3 4 5 6 7 8 9 10 11 12 13 14 15 16 17 18 19 20
000
FTUS43 KICT 191300 AAA
TAFICT
TAF AMD
KICT 191300Z 1913/2012 16009KT 4SM -DZ BR SCT004 OVC007
      TEMPO 1913/1914 1SM BR BKN002
     FM191400 15009KT 4SM -DZ BR OVC003
     FM191700 16007KT P6SM OVC008
     FM192000 16007KT P6SM OVC012
     FM200600 VRB03KT 5SM BR BKN008=

USA.gov is the U.S. government's official web portal to all federal, state and local government web resources and services.